Time;durP1;ratioP1;P1;durP2;ratioP2;P2;SDS_P1;SDS_P2;PMS_P1;PMS_P2;Temp;Humidity;BMP_temperature;BMP_pressure;BME280_temperature;BME280_humidity;BME280_pressure;Samples;Min_cycle;Max_cycle;Signal;HPM_P1;HPM_P2
2021/11/19 00:00:32;;;;;;;;;;;9.80;99.90;;;;;;5002206;28;19914;-73
2021/11/19 00:02:58;;;;;;;;;;;9.80;99.90;;;;;;5003086;28;20404;-73
2021/11/19 00:05:24;;;;;;;;;;;9.80;99.90;;;;;;5001795;28;19950;-73
2021/11/19 00:07:49;;;;;;;;;;;9.80;99.90;;;;;;5001450;28;20010;-73
2021/11/19 00:10:15;;;;;;;;;;;9.80;99.90;;;;;;5002387;28;19922;-73
2021/11/19 00:12:41;;;;;;;;;;;9.80;99.90;;;;;;5001333;28;19913;-73
2021/11/19 00:15:07;;;;;;;;;;;9.80;99.90;;;;;;5001646;28;20008;-73
2021/11/19 00:17:33;;;;;;;;;;;9.80;99.90;;;;;;5002059;28;19914;-73
2021/11/19 00:19:59;;;;;;;;;;;9.80;99.90;;;;;;5001838;28;19918;-73
2021/11/19 00:22:24;;;;;;;;;;;9.80;99.90;;;;;;5002317;28;19948;-73
2021/11/19 00:24:50;;;;;;;;;;;9.80;99.90;;;;;;5000386;28;20312;-73
2021/11/19 00:27:17;;;;;;;;;;;9.90;99.90;;;;;;5001658;28;19959;-73
2021/11/19 00:29:44;;;;;;;;;;;9.90;99.90;;;;;;4999586;28;21615;-73
2021/11/19 00:32:10;;;;;;;;;;;9.80;99.90;;;;;;5001272;28;19917;-73
2021/11/19 00:34:36;;;;;;;;;;;9.80;99.90;;;;;;5001994;28;19999;-73
2021/11/19 00:37:02;;;;;;;;;;;9.80;99.90;;;;;;5001360;28;20287;-73
2021/11/19 00:39:28;;;;;;;;;;;9.90;99.90;;;;;;5019310;22;19913;-64
2021/11/19 00:41:54;;;;;;;;;;;9.90;99.90;;;;;;5006686;28;20291;-65
2021/11/19 00:44:20;;;;;;;;;;;9.90;99.90;;;;;;5007182;28;19913;-64
2021/11/19 00:46:46;;;;;;;;;;;9.90;99.90;;;;;;5006743;28;19917;-64
2021/11/19 00:49:12;;;;;;;;;;;9.90;99.90;;;;;;5004041;28;20008;-65
2021/11/19 00:51:40;;;;;;;;;;;9.90;99.90;;;;;;5007393;28;19997;-63
2021/11/19 00:54:07;;;;;;;;;;;9.90;99.90;;;;;;5006595;28;19920;-62
2021/11/19 00:56:34;;;;;;;;;;;9.90;99.90;;;;;;5006097;28;20107;-65
2021/11/19 00:59:00;;;;;;;;;;;9.90;99.90;;;;;;5003153;28;20405;-63
2021/11/19 01:01:28;;;;;;;;;;;10.00;99.90;;;;;;5000775;28;20160;-62
2021/11/19 01:03:53;;;;;;;;;;;10.00;99.90;;;;;;5001856;28;20231;-63
2021/11/19 01:06:19;;;;;;;;;;;10.00;99.90;;;;;;4999351;28;19918;-65
2021/11/19 01:08:44;;;;;;;;;;;10.00;99.90;;;;;;5005852;28;20020;-65
2021/11/19 01:11:12;;;;;;;;;;;10.00;99.90;;;;;;5003927;28;19928;-64
2021/11/19 01:13:39;;;;;;;;;;;10.00;99.90;;;;;;4993537;28;19918;-63
2021/11/19 01:16:07;;;;;;;;;;;10.00;99.90;;;;;;5004061;28;20397;-63
2021/11/19 01:18:38;;;;;;;;;;;10.00;99.90;;;;;;5003727;28;19939;-64
2021/11/19 01:21:05;;;;;;;;;;;10.00;99.90;;;;;;5004697;28;19967;-63
2021/11/19 01:23:31;;;;;;;;;;;10.00;99.90;;;;;;5004230;28;19922;-64
2021/11/19 01:26:01;;;;;;;;;;;10.00;99.90;;;;;;5007992;28;19921;-64
2021/11/19 01:28:27;;;;;;;;;;;10.10;99.90;;;;;;5003001;28;19963;-64
2021/11/19 01:30:54;;;;;;;;;;;10.10;99.90;;;;;;5002655;28;20433;-63
2021/11/19 01:33:20;;;;;;;;;;;10.10;99.90;;;;;;5002869;28;19914;-64
2021/11/19 01:35:46;;;;;;;;;;;10.10;99.90;;;;;;5005530;28;20437;-64
2021/11/19 01:38:11;;;;;;;;;;;10.10;99.90;;;;;;5006562;28;19975;-64
2021/11/19 01:40:39;;;;;;;;;;;10.10;99.90;;;;;;5004123;28;19932;-63
2021/11/19 01:43:06;;;;;;;;;;;10.10;99.90;;;;;;5005227;28;19967;-62
2021/11/19 01:45:34;;;;;;;;;;;10.10;99.90;;;;;;5004974;28;19913;-64
2021/11/19 01:48:00;;;;;;;;;;;10.10;99.90;;;;;;5005588;28;20282;-65
2021/11/19 01:50:32;;;;;;;;;;;10.10;99.90;;;;;;5001434;28;19921;-65
2021/11/19 01:53:01;;;;;;;;;;;10.10;99.90;;;;;;4972522;28;19926;-65
2021/11/19 01:55:29;;;;;;;;;;;10.10;99.90;;;;;;5004929;28;19936;-66
2021/11/19 01:58:04;;;;;;;;;;;10.10;99.90;;;;;;5003859;28;19924;-62
2021/11/19 02:00:33;;;;;;;;;;;10.10;99.90;;;;;;5004639;28;20481;-64
2021/11/19 02:02:59;;;;;;;;;;;10.10;99.90;;;;;;5003655;28;19926;-65
2021/11/19 02:05:33;;;;;;;;;;;10.10;99.90;;;;;;5003526;28;19914;-64
2021/11/19 02:08:01;;;;;;;;;;;10.10;99.90;;;;;;5005461;28;20454;-65
2021/11/19 02:10:32;;;;;;;;;;;10.10;99.90;;;;;;5004218;28;19972;-65
2021/11/19 02:13:11;;;;;;;;;;;10.10;99.90;;;;;;4986236;28;19967;-62
2021/11/19 02:15:41;;;;;;;;;;;10.10;99.90;;;;;;5004798;28;20350;-65
2021/11/19 02:18:09;;;;;;;;;;;10.10;99.90;;;;;;5005969;28;19936;-65
2021/11/19 02:20:37;;;;;;;;;;;10.10;99.90;;;;;;5001327;28;19914;-66
2021/11/19 02:23:07;;;;;;;;;;;10.10;99.90;;;;;;5004684;28;20477;-64
2021/11/19 02:25:40;;;;;;;;;;;10.10;99.90;;;;;;5004721;28;19917;-65
2021/11/19 02:28:11;;;;;;;;;;;10.10;99.90;;;;;;5004906;28;20004;-65
2021/11/19 02:30:56;;;;;;;;;;;10.10;99.90;;;;;;5003837;28;19991;-66
2021/11/19 02:33:23;;;;;;;;;;;10.20;99.90;;;;;;4987411;28;19917;-65
2021/11/19 02:35:51;;;;;;;;;;;10.10;99.90;;;;;;5004052;28;19914;-64
2021/11/19 02:38:18;;;;;;;;;;;10.20;99.90;;;;;;4985102;28;19914;-64
2021/11/19 02:40:44;;;;;;;;;;;10.10;99.90;;;;;;5003936;28;19917;-64
2021/11/19 02:43:13;;;;;;;;;;;10.10;99.90;;;;;;4987345;28;20055;-65
2021/11/19 02:45:40;;;;;;;;;;;10.10;99.90;;;;;;5006948;28;19913;-64
2021/11/19 02:48:07;;;;;;;;;;;10.20;99.90;;;;;;5007579;28;19914;-65
2021/11/19 02:50:32;;;;;;;;;;;10.10;99.90;;;;;;5007546;28;19921;-62
2021/11/19 02:52:58;;;;;;;;;;;10.20;99.90;;;;;;5007315;28;20295;-65
2021/11/19 02:55:26;;;;;;;;;;;10.20;99.90;;;;;;5004715;28;19922;-65
2021/11/19 02:57:52;;;;;;;;;;;10.10;99.90;;;;;;5004292;28;19913;-64
2021/11/19 03:00:20;;;;;;;;;;;10.20;99.90;;;;;;5005620;28;19959;-63
2021/11/19 03:02:46;;;;;;;;;;;10.20;99.90;;;;;;5004593;28;19961;-66
2021/11/19 03:05:15;;;;;;;;;;;10.20;99.90;;;;;;5006785;28;19913;-63
2021/11/19 03:07:40;;;;;;;;;;;10.20;99.90;;;;;;5007464;28;19913;-64
2021/11/19 03:10:17;;;;;;;;;;;10.10;99.90;;;;;;5007108;28;19921;-64
2021/11/19 03:12:44;;;;;;;;;;;10.10;99.90;;;;;;5004589;28;19914;-64
2021/11/19 03:15:12;;;;;;;;;;;10.20;99.90;;;;;;5008358;28;20027;-65
2021/11/19 03:17:38;;;;;;;;;;;10.20;99.90;;;;;;5007709;28;20346;-64
2021/11/19 03:20:05;;;;;;;;;;;10.20;99.90;;;;;;5007466;28;19957;-62
2021/11/19 03:22:31;;;;;;;;;;;10.20;99.90;;;;;;5006238;28;19972;-64
2021/11/19 03:24:56;;;;;;;;;;;10.20;99.90;;;;;;5008845;28;19921;-65
2021/11/19 03:27:24;;;;;;;;;;;10.20;99.90;;;;;;5006396;28;19913;-62
2021/11/19 03:29:50;;;;;;;;;;;10.20;99.90;;;;;;5007478;28;20301;-62
2021/11/19 03:32:18;;;;;;;;;;;10.20;99.90;;;;;;5008385;28;20416;-65
2021/11/19 03:34:43;;;;;;;;;;;10.20;99.90;;;;;;5008759;28;19956;-64
2021/11/19 03:37:09;;;;;;;;;;;10.20;99.90;;;;;;5007109;28;19967;-65
2021/11/19 03:39:35;;;;;;;;;;;10.30;99.90;;;;;;5006877;28;19917;-64
2021/11/19 03:42:00;;;;;;;;;;;10.30;99.90;;;;;;5007448;28;20832;-63
2021/11/19 03:44:29;;;;;;;;;;;10.30;99.90;;;;;;5006439;28;19917;-64
2021/11/19 03:47:00;;;;;;;;;;;10.30;99.90;;;;;;5007477;28;20015;-64
2021/11/19 03:49:25;;;;;;;;;;;10.30;99.90;;;;;;5006775;28;19917;-63
2021/11/19 03:51:56;;;;;;;;;;;10.30;99.90;;;;;;4974904;28;20286;-64
2021/11/19 03:54:24;;;;;;;;;;;10.30;99.90;;;;;;5007136;28;19913;-64
2021/11/19 03:56:50;;;;;;;;;;;10.30;99.90;;;;;;5006383;28;19921;-64
2021/11/19 03:59:15;;;;;;;;;;;10.30;99.90;;;;;;5004048;28;19976;-66
2021/11/19 04:01:43;;;;;;;;;;;10.30;99.90;;;;;;5006074;28;19913;-64
2021/11/19 04:04:09;;;;;;;;;;;10.30;99.90;;;;;;5006834;28;19921;-63
2021/11/19 04:06:35;;;;;;;;;;;10.40;99.90;;;;;;5008039;28;19918;-64
2021/11/19 04:09:01;;;;;;;;;;;10.40;99.90;;;;;;5007593;28;19914;-63
2021/11/19 04:11:27;;;;;;;;;;;10.30;99.90;;;;;;5006173;28;19932;-63
2021/11/19 04:13:53;;;;;;;;;;;10.40;99.90;;;;;;5007768;28;19918;-65
2021/11/19 04:16:20;;;;;;;;;;;10.40;99.90;;;;;;5004628;28;19913;-64
2021/11/19 04:18:46;;;;;;;;;;;10.40;99.90;;;;;;4991104;28;19917;-66
2021/11/19 04:21:12;;;;;;;;;;;10.40;99.90;;;;;;5006540;28;19924;-64
2021/11/19 04:23:38;;;;;;;;;;;10.40;99.90;;;;;;5005836;28;19920;-63
2021/11/19 04:26:04;;;;;;;;;;;10.40;99.90;;;;;;5007189;28;19918;-62
2021/11/19 04:28:30;;;;;;;;;;;10.40;99.90;;;;;;5005018;28;19924;-65
2021/11/19 04:30:56;;;;;;;;;;;10.40;99.90;;;;;;5004964;28;20372;-61
2021/11/19 04:33:22;;;;;;;;;;;10.40;99.90;;;;;;5004811;28;20342;-61
2021/11/19 04:35:48;;;;;;;;;;;10.40;99.90;;;;;;5007280;28;20007;-62
2021/11/19 04:38:15;;;;;;;;;;;10.40;99.90;;;;;;5008016;28;19909;-64
2021/11/19 04:40:42;;;;;;;;;;;10.40;99.90;;;;;;5006402;28;20496;-65
2021/11/19 04:43:08;;;;;;;;;;;10.40;99.90;;;;;;5004159;28;20938;-64
2021/11/19 04:45:34;;;;;;;;;;;10.40;99.90;;;;;;4989409;28;19917;-64
2021/11/19 04:47:59;;;;;;;;;;;10.40;99.90;;;;;;5004712;28;19925;-64
2021/11/19 04:50:27;;;;;;;;;;;10.40;99.90;;;;;;5006015;28;20038;-65
2021/11/19 04:52:53;;;;;;;;;;;10.40;99.90;;;;;;4988373;28;19927;-64
2021/11/19 04:55:18;;;;;;;;;;;10.40;99.90;;;;;;5006601;28;19913;-62
2021/11/19 04:57:44;;;;;;;;;;;10.40;99.90;;;;;;5005368;28;19972;-65
2021/11/19 05:00:17;;;;;;;;;;;10.40;99.90;;;;;;5003800;28;19913;-64
2021/11/19 05:02:43;;;;;;;;;;;10.40;99.90;;;;;;5004251;28;19935;-62
2021/11/19 05:05:08;;;;;;;;;;;10.40;99.90;;;;;;5003852;28;20376;-65
2021/11/19 05:07:34;;;;;;;;;;;10.40;99.90;;;;;;5006356;28;20336;-64
2021/11/19 05:10:00;;;;;;;;;;;10.40;99.90;;;;;;5003151;28;20417;-64
2021/11/19 05:12:28;;;;;;;;;;;10.40;99.90;;;;;;5005133;28;20375;-63
2021/11/19 05:14:53;;;;;;;;;;;10.40;99.90;;;;;;5002016;28;19929;-64
2021/11/19 05:17:22;;;;;;;;;;;10.40;99.90;;;;;;5002715;28;19921;-65
2021/11/19 05:19:47;;;;;;;;;;;10.40;99.90;;;;;;5003460;28;20030;-64
2021/11/19 05:22:13;;;;;;;;;;;10.40;99.90;;;;;;5006728;28;20607;-61
2021/11/19 05:24:39;;;;;;;;;;;10.40;99.90;;;;;;5005471;28;20454;-62
2021/11/19 05:27:05;;;;;;;;;;;10.40;99.90;;;;;;5005961;28;20259;-65
2021/11/19 05:29:31;;;;;;;;;;;10.40;99.90;;;;;;5003245;28;20806;-65
2021/11/19 05:31:56;;;;;;;;;;;10.40;99.90;;;;;;5003182;28;20183;-64
2021/11/19 05:34:22;;;;;;;;;;;10.40;99.90;;;;;;5005675;28;20482;-65
2021/11/19 05:36:48;;;;;;;;;;;10.40;99.90;;;;;;5003273;28;19914;-64
2021/11/19 05:39:14;;;;;;;;;;;10.40;99.90;;;;;;5003369;28;19913;-64
2021/11/19 05:41:39;;;;;;;;;;;10.40;99.90;;;;;;5006426;28;20398;-64
2021/11/19 05:44:05;;;;;;;;;;;10.40;99.90;;;;;;5005356;28;20381;-63
2021/11/19 05:46:32;;;;;;;;;;;10.40;99.90;;;;;;5006562;28;19910;-64
2021/11/19 05:48:58;;;;;;;;;;;10.40;99.90;;;;;;5002694;28;20292;-64
2021/11/19 05:51:25;;;;;;;;;;;10.40;99.90;;;;;;5005514;28;20004;-61
2021/11/19 05:53:51;;;;;;;;;;;10.40;99.90;;;;;;5005006;28;19979;-64
2021/11/19 05:56:17;;;;;;;;;;;10.40;99.90;;;;;;5001646;28;20343;-65
2021/11/19 05:58:43;;;;;;;;;;;10.40;99.90;;;;;;4982438;28;19920;-64
2021/11/19 06:01:10;;;;;;;;;;;10.40;99.90;;;;;;5003455;28;20019;-64
2021/11/19 06:03:37;;;;;;;;;;;10.40;99.90;;;;;;5002773;28;20460;-65
2021/11/19 06:06:05;;;;;;;;;;;10.40;99.90;;;;;;5001060;28;19964;-61
2021/11/19 06:08:31;;;;;;;;;;;10.40;99.90;;;;;;5002342;28;20400;-64
2021/11/19 06:11:01;;;;;;;;;;;10.40;99.90;;;;;;5003111;28;19925;-63
2021/11/19 06:13:31;;;;;;;;;;;10.40;99.90;;;;;;5003085;28;19917;-63
2021/11/19 06:16:04;;;;;;;;;;;10.40;99.90;;;;;;5004073;28;19914;-63
2021/11/19 06:18:32;;;;;;;;;;;10.40;99.90;;;;;;5004738;28;20270;-65
2021/11/19 06:21:00;;;;;;;;;;;10.40;99.90;;;;;;5008261;28;20341;-65
2021/11/19 06:23:30;;;;;;;;;;;10.40;99.90;;;;;;5006916;28;19918;-63
2021/11/19 06:25:56;;;;;;;;;;;10.40;99.90;;;;;;4988863;28;19929;-63
2021/11/19 06:28:29;;;;;;;;;;;10.40;99.90;;;;;;5008114;28;19917;-63
2021/11/19 06:30:55;;;;;;;;;;;10.40;99.90;;;;;;5007515;28;19928;-64
2021/11/19 06:33:21;;;;;;;;;;;10.40;99.90;;;;;;5008027;28;19913;-63
2021/11/19 06:35:47;;;;;;;;;;;10.40;99.90;;;;;;5004719;28;19964;-61
2021/11/19 06:38:13;;;;;;;;;;;10.40;99.90;;;;;;5007259;28;19964;-64
2021/11/19 06:40:39;;;;;;;;;;;10.40;99.90;;;;;;5022810;23;20056;-62
2021/11/19 06:43:05;;;;;;;;;;;10.50;99.90;;;;;;5006793;28;20427;-62
2021/11/19 06:45:30;;;;;;;;;;;10.40;99.90;;;;;;5008991;28;19917;-64
2021/11/19 06:47:56;;;;;;;;;;;10.40;99.90;;;;;;5006946;28;19972;-61
2021/11/19 06:50:24;;;;;;;;;;;10.50;99.90;;;;;;5006841;28;20273;-62
2021/11/19 06:52:49;;;;;;;;;;;10.40;99.90;;;;;;5007353;28;20354;-62
2021/11/19 06:55:15;;;;;;;;;;;10.50;99.90;;;;;;5008363;28;19976;-60
2021/11/19 06:57:42;;;;;;;;;;;10.50;99.90;;;;;;5006683;28;20354;-62
2021/11/19 07:00:09;;;;;;;;;;;10.50;99.90;;;;;;5007193;28;20381;-61
2021/11/19 07:02:34;;;;;;;;;;;10.50;99.90;;;;;;4999849;28;20378;-62
2021/11/19 07:05:00;;;;;;;;;;;10.50;99.90;;;;;;4999470;28;19921;-61
2021/11/19 07:07:25;;;;;;;;;;;10.50;99.90;;;;;;4995601;28;19964;-61
2021/11/19 07:09:51;;;;;;;;;;;10.50;99.90;;;;;;5001811;28;20315;-61
2021/11/19 07:12:16;;;;;;;;;;;10.50;99.90;;;;;;5006183;28;20282;-61
2021/11/19 07:14:42;;;;;;;;;;;10.50;99.90;;;;;;5005413;28;19925;-60
2021/11/19 07:17:08;;;;;;;;;;;10.50;99.90;;;;;;5002820;28;19921;-60
2021/11/19 07:19:34;;;;;;;;;;;10.50;99.90;;;;;;5008415;28;19961;-61
2021/11/19 07:22:00;;;;;;;;;;;10.60;99.90;;;;;;5008221;28;20370;-61
2021/11/19 07:24:26;;;;;;;;;;;10.60;99.90;;;;;;5007476;28;19925;-61
2021/11/19 07:26:51;;;;;;;;;;;10.60;99.90;;;;;;5007328;28;19921;-61
2021/11/19 07:29:17;;;;;;;;;;;10.60;99.90;;;;;;5007353;28;20362;-61
2021/11/19 07:31:42;;;;;;;;;;;10.70;99.90;;;;;;5006589;28;20448;-62
2021/11/19 07:34:08;;;;;;;;;;;10.60;99.90;;;;;;5008808;28;19925;-61
2021/11/19 07:36:33;;;;;;;;;;;10.70;99.90;;;;;;5008864;28;20461;-61
2021/11/19 07:38:59;;;;;;;;;;;10.70;99.90;;;;;;5006430;28;19914;-61
2021/11/19 07:41:25;;;;;;;;;;;10.70;99.90;;;;;;5008152;28;19918;-61
2021/11/19 07:43:51;;;;;;;;;;;10.70;99.90;;;;;;5008082;28;19944;-61
2021/11/19 07:46:18;;;;;;;;;;;10.70;99.90;;;;;;5008339;28;19917;-61
2021/11/19 07:48:44;;;;;;;;;;;10.70;99.90;;;;;;5004076;28;19913;-61
2021/11/19 07:51:12;;;;;;;;;;;10.80;99.90;;;;;;5002866;28;19917;-61
2021/11/19 07:53:38;;;;;;;;;;;10.80;99.90;;;;;;5005630;28;19993;-60
2021/11/19 07:56:04;;;;;;;;;;;10.80;99.90;;;;;;5005625;28;20011;-60
2021/11/19 07:58:30;;;;;;;;;;;10.80;99.90;;;;;;5006887;28;20433;-61
2021/11/19 08:00:57;;;;;;;;;;;10.80;99.90;;;;;;5005413;28;19928;-61
2021/11/19 08:03:22;;;;;;;;;;;10.80;99.90;;;;;;5003773;28;19913;-61
2021/11/19 08:05:49;;;;;;;;;;;10.80;99.90;;;;;;5005628;28;19917;-61
2021/11/19 08:08:15;;;;;;;;;;;10.80;99.90;;;;;;5005138;28;19967;-60
2021/11/19 08:10:40;;;;;;;;;;;10.80;99.90;;;;;;5002360;28;19917;-61
2021/11/19 08:13:06;;;;;;;;;;;10.80;99.90;;;;;;5005403;28;19968;-61
2021/11/19 08:15:32;;;;;;;;;;;10.80;99.90;;;;;;5004895;28;19953;-61
2021/11/19 08:17:58;;;;;;;;;;;10.80;99.90;;;;;;5004412;28;20393;-61
2021/11/19 08:20:25;;;;;;;;;;;10.90;99.90;;;;;;5005794;28;20031;-61
2021/11/19 08:22:51;;;;;;;;;;;10.90;99.90;;;;;;5005075;28;20362;-62
2021/11/19 08:25:17;;;;;;;;;;;10.90;99.90;;;;;;5005556;28;20103;-62
2021/11/19 08:27:46;;;;;;;;;;;10.90;99.90;;;;;;5001014;28;20011;-62
2021/11/19 08:30:14;;;;;;;;;;;10.90;99.90;;;;;;5004363;28;20012;-61
2021/11/19 08:32:40;;;;;;;;;;;10.90;99.90;;;;;;5004669;28;20000;-61
2021/11/19 08:35:08;;;;;;;;;;;10.90;99.90;;;;;;5004244;28;20000;-60
2021/11/19 08:37:35;;;;;;;;;;;10.90;99.90;;;;;;5006296;28;19913;-62
2021/11/19 08:40:01;;;;;;;;;;;10.90;99.90;;;;;;5005293;28;19925;-60
2021/11/19 08:42:27;;;;;;;;;;;10.90;99.90;;;;;;5004260;28;20404;-61
2021/11/19 08:44:52;;;;;;;;;;;11.00;99.90;;;;;;5005508;28;19914;-61
2021/11/19 08:47:19;;;;;;;;;;;11.00;99.90;;;;;;5005005;28;19960;-61
2021/11/19 08:49:44;;;;;;;;;;;11.00;99.90;;;;;;5003170;28;19917;-62
2021/11/19 08:52:12;;;;;;;;;;;11.00;99.90;;;;;;4999340;28;20428;-61
2021/11/19 08:54:38;;;;;;;;;;;11.00;99.90;;;;;;5003789;28;20121;-62
2021/11/19 08:57:08;;;;;;;;;;;11.10;99.90;;;;;;5002535;28;19918;-61
2021/11/19 08:59:35;;;;;;;;;;;11.10;99.90;;;;;;4990112;28;19914;-62
2021/11/19 09:02:01;;;;;;;;;;;11.10;99.90;;;;;;5003448;28;20259;-62
2021/11/19 09:04:27;;;;;;;;;;;11.10;99.90;;;;;;5003871;28;19918;-61
2021/11/19 09:06:53;;;;;;;;;;;11.10;99.90;;;;;;5003609;28;20489;-62
2021/11/19 09:09:19;;;;;;;;;;;11.10;99.90;;;;;;5004850;28;19972;-62
2021/11/19 09:11:46;;;;;;;;;;;11.20;99.90;;;;;;5000300;28;20039;-62
2021/11/19 09:14:11;;;;;;;;;;;11.20;99.90;;;;;;5004991;28;19965;-62
2021/11/19 09:16:38;;;;;;;;;;;11.20;99.90;;;;;;5006408;28;19969;-62
2021/11/19 09:19:04;;;;;;;;;;;11.10;99.90;;;;;;5006185;28;20024;-62
2021/11/19 09:21:32;;;;;;;;;;;11.20;99.90;;;;;;5003511;28;20055;-62
2021/11/19 09:23:58;;;;;;;;;;;11.20;99.90;;;;;;5003099;28;19917;-62
2021/11/19 09:26:44;;;;;;;;;;;11.20;99.90;;;;;;5004439;28;19913;-62
2021/11/19 09:29:30;;;;;;;;;;;11.20;99.90;;;;;;5003217;28;19936;-61
2021/11/19 09:31:56;;;;;;;;;;;11.20;99.90;;;;;;5002471;28;19921;-62
2021/11/19 09:34:22;;;;;;;;;;;11.20;99.90;;;;;;5005395;28;19920;-62
2021/11/19 09:36:48;;;;;;;;;;;11.20;99.90;;;;;;5004582;28;19914;-62
2021/11/19 09:39:15;;;;;;;;;;;11.20;99.90;;;;;;5001976;28;20002;-62
2021/11/19 09:41:48;;;;;;;;;;;11.20;99.90;;;;;;5003947;28;19922;-62
2021/11/19 09:44:34;;;;;;;;;;;11.20;99.90;;;;;;5002079;28;20004;-61
2021/11/19 09:47:17;;;;;;;;;;;11.20;99.90;;;;;;5003384;28;20457;-61
2021/11/19 09:49:56;;;;;;;;;;;11.30;99.90;;;;;;5004618;28;19979;-62
2021/11/19 09:52:25;;;;;;;;;;;11.30;99.90;;;;;;5001847;28;19913;-64
2021/11/19 09:55:09;;;;;;;;;;;11.30;99.90;;;;;;5001377;28;19928;-62
2021/11/19 09:57:57;;;;;;;;;;;11.30;99.90;;;;;;5001837;28;20051;-62
2021/11/19 10:00:34;;;;;;;;;;;11.30;99.90;;;;;;5004318;28;19917;-60
2021/11/19 10:03:12;;;;;;;;;;;11.30;99.90;;;;;;5000001;28;19925;-62
2021/11/19 10:05:41;;;;;;;;;;;11.40;99.90;;;;;;5003416;28;19914;-62
2021/11/19 10:08:10;;;;;;;;;;;11.40;99.90;;;;;;5002810;28;19932;-62
2021/11/19 10:10:57;;;;;;;;;;;11.40;99.90;;;;;;5003263;28;19924;-62
2021/11/19 10:13:22;;;;;;;;;;;11.40;99.90;;;;;;5004667;28;19914;-61
2021/11/19 10:16:06;;;;;;;;;;;11.40;99.90;;;;;;5003557;28;19918;-62
2021/11/19 10:18:52;;;;;;;;;;;11.50;99.90;;;;;;5001478;28;19921;-61
2021/11/19 10:21:22;;;;;;;;;;;11.60;99.90;;;;;;5001566;28;19920;-62
2021/11/19 10:23:51;;;;;;;;;;;11.60;99.90;;;;;;5002959;28;20004;-61
2021/11/19 10:26:21;;;;;;;;;;;11.70;99.90;;;;;;5002926;28;20012;-61
2021/11/19 10:28:49;;;;;;;;;;;11.70;99.90;;;;;;5003787;28;19914;-62
2021/11/19 10:31:16;;;;;;;;;;;11.80;99.90;;;;;;5009992;28;19922;-61
2021/11/19 10:33:44;;;;;;;;;;;11.80;99.90;;;;;;5003453;28;19918;-62
2021/11/19 10:36:17;;;;;;;;;;;11.90;99.90;;;;;;5002699;28;19919;-62
2021/11/19 10:38:45;;;;;;;;;;;12.00;99.90;;;;;;4999671;28;19914;-62
2021/11/19 10:41:29;;;;;;;;;;;12.00;99.90;;;;;;5003684;28;20374;-61
2021/11/19 10:43:55;;;;;;;;;;;12.10;99.90;;;;;;5000517;28;19918;-61
2021/11/19 10:46:39;;;;;;;;;;;12.20;99.90;;;;;;5002493;28;19925;-61
2021/11/19 10:49:07;;;;;;;;;;;12.20;99.90;;;;;;5004357;28;19914;-62
2021/11/19 10:51:45;;;;;;;;;;;12.20;99.90;;;;;;5001447;28;19929;-62
2021/11/19 10:54:29;;;;;;;;;;;12.20;99.90;;;;;;4999735;28;19921;-62
2021/11/19 10:57:13;;;;;;;;;;;12.20;99.90;;;;;;4999910;28;19924;-61
2021/11/19 10:59:43;;;;;;;;;;;12.20;99.90;;;;;;5000151;28;20447;-64
2021/11/19 11:02:12;;;;;;;;;;;12.20;99.90;;;;;;4999566;28;19921;-62
2021/11/19 11:05:02;;;;;;;;;;;12.20;99.90;;;;;;5003286;28;19953;-61
2021/11/19 11:07:29;;;;;;;;;;;12.20;99.90;;;;;;5004589;28;20390;-62
2021/11/19 11:09:57;;;;;;;;;;;12.30;99.90;;;;;;5004564;28;20464;-61
2021/11/19 11:12:25;;;;;;;;;;;12.30;99.90;;;;;;5004898;28;19914;-62
2021/11/19 11:15:09;;;;;;;;;;;12.30;99.90;;;;;;5006870;28;19920;-62
2021/11/19 11:17:36;;;;;;;;;;;12.30;99.90;;;;;;5007546;28;19967;-61
2021/11/19 11:20:17;;;;;;;;;;;12.30;99.90;;;;;;5003325;28;19918;-62
2021/11/19 11:22:49;;;;;;;;;;;12.30;99.90;;;;;;5005713;28;19967;-62
2021/11/19 11:25:24;;;;;;;;;;;12.30;99.90;;;;;;5005001;28;20429;-61
2021/11/19 11:28:08;;;;;;;;;;;12.30;99.90;;;;;;5006221;28;19917;-61
2021/11/19 11:30:54;;;;;;;;;;;12.30;99.90;;;;;;5005035;28;20012;-63
2021/11/19 11:33:25;;;;;;;;;;;12.40;99.90;;;;;;5006973;28;20329;-63
2021/11/19 11:35:53;;;;;;;;;;;12.40;99.90;;;;;;5003701;28;19928;-63
2021/11/19 11:38:22;;;;;;;;;;;12.40;99.90;;;;;;5007654;28;20508;-63
2021/11/19 11:41:06;;;;;;;;;;;12.40;99.90;;;;;;5002969;28;20371;-63
2021/11/19 11:43:36;;;;;;;;;;;12.40;99.90;;;;;;5000365;28;19923;-63
2021/11/19 11:46:20;;;;;;;;;;;12.50;99.90;;;;;;5002359;28;19947;-61
2021/11/19 11:49:01;;;;;;;;;;;12.50;99.90;;;;;;5001344;28;19921;-63
2021/11/19 11:51:42;;;;;;;;;;;12.50;99.90;;;;;;5008003;28;19971;-63
2021/11/19 11:54:29;;;;;;;;;;;12.50;99.90;;;;;;5001727;28;19964;-63
2021/11/19 11:57:14;;;;;;;;;;;12.50;99.90;;;;;;5006921;28;20442;-63
2021/11/19 11:59:49;;;;;;;;;;;12.60;99.90;;;;;;5004636;28;20428;-63
2021/11/19 12:02:34;;;;;;;;;;;12.60;99.90;;;;;;5004726;28;19925;-63
2021/11/19 12:05:02;;;;;;;;;;;12.60;99.90;;;;;;5006369;28;19913;-62
2021/11/19 12:07:57;;;;;;;;;;;12.60;99.90;;;;;;5007098;28;19917;-63
2021/11/19 12:10:43;;;;;;;;;;;12.60;99.90;;;;;;4991759;28;19924;-63
2021/11/19 12:13:27;;;;;;;;;;;12.70;99.90;;;;;;5004191;28;19920;-63
2021/11/19 12:16:13;;;;;;;;;;;12.60;99.90;;;;;;5007869;28;20425;-62
2021/11/19 12:18:46;;;;;;;;;;;12.70;99.90;;;;;;4979291;28;19936;-63
2021/11/19 12:21:17;;;;;;;;;;;12.70;99.90;;;;;;5000397;28;19921;-62
2021/11/19 12:24:02;;;;;;;;;;;12.70;99.90;;;;;;4996991;28;19918;-61
2021/11/19 12:26:30;;;;;;;;;;;12.70;99.90;;;;;;5003532;28;20366;-62
2021/11/19 12:29:11;;;;;;;;;;;12.70;99.90;;;;;;4989960;28;19922;-62
2021/11/19 12:31:39;;;;;;;;;;;12.70;99.90;;;;;;5000316;28;19925;-62
2021/11/19 12:34:15;;;;;;;;;;;12.60;99.90;;;;;;5000335;28;19917;-62
2021/11/19 12:36:46;;;;;;;;;;;12.60;99.90;;;;;;5002606;28;19922;-62
2021/11/19 12:39:11;;;;;;;;;;;12.60;99.90;;;;;;5006889;28;19995;-63
2021/11/19 12:41:43;;;;;;;;;;;12.60;99.90;;;;;;5033881;22;20827;-62
2021/11/19 12:44:28;;;;;;;;;;;12.60;99.90;;;;;;5018178;28;19913;-62
2021/11/19 12:46:53;;;;;;;;;;;12.60;99.90;;;;;;5024461;28;19921;-63
2021/11/19 12:49:31;;;;;;;;;;;12.60;99.90;;;;;;5025636;28;19968;-63
2021/11/19 12:52:01;;;;;;;;;;;12.60;99.90;;;;;;5016258;28;19921;-63
2021/11/19 12:54:33;;;;;;;;;;;12.60;99.90;;;;;;5024920;28;19917;-63
2021/11/19 12:57:04;;;;;;;;;;;12.60;99.90;;;;;;5015250;28;20027;-64
2021/11/19 12:59:48;;;;;;;;;;;12.60;99.90;;;;;;5022789;28;19923;-63
2021/11/19 13:02:17;;;;;;;;;;;12.50;99.90;;;;;;5020290;28;19999;-63
2021/11/19 13:05:02;;;;;;;;;;;12.50;99.90;;;;;;5026239;28;20038;-64
2021/11/19 13:07:33;;;;;;;;;;;12.50;99.90;;;;;;5020071;28;19924;-63
2021/11/19 13:10:19;;;;;;;;;;;12.50;99.90;;;;;;5021760;28;19966;-64
2021/11/19 13:13:03;;;;;;;;;;;12.50;99.90;;;;;;5012463;28;19924;-64
2021/11/19 13:15:31;;;;;;;;;;;12.50;99.90;;;;;;4995043;28;19913;-64
2021/11/19 13:18:14;;;;;;;;;;;12.50;99.90;;;;;;5022734;28;20016;-63
2021/11/19 13:20:52;;;;;;;;;;;12.50;99.90;;;;;;5024570;28;19917;-64
2021/11/19 13:23:20;;;;;;;;;;;12.50;99.90;;;;;;5019509;28;19921;-63
2021/11/19 13:25:49;;;;;;;;;;;12.50;99.90;;;;;;4998036;28;19943;-63
2021/11/19 13:28:34;;;;;;;;;;;12.50;99.90;;;;;;5021446;28;19992;-64
2021/11/19 13:31:18;;;;;;;;;;;12.50;99.90;;;;;;5023870;28;19928;-63
2021/11/19 13:34:02;;;;;;;;;;;12.50;99.90;;;;;;5013125;28;20170;-63
2021/11/19 13:36:46;;;;;;;;;;;12.50;99.90;;;;;;5019062;28;19914;-63
2021/11/19 13:39:26;;;;;;;;;;;12.50;99.90;;;;;;5016035;28;20321;-64
2021/11/19 13:42:05;;;;;;;;;;;12.50;99.90;;;;;;5022617;28;19924;-64
2021/11/19 13:44:45;;;;;;;;;;;12.50;99.90;;;;;;5004681;28;19979;-63
2021/11/19 13:47:19;;;;;;;;;;;12.50;99.90;;;;;;5023294;28;20125;-64
2021/11/19 13:49:50;;;;;;;;;;;12.80;99.90;;;;;;5006947;28;20378;-64
2021/11/19 13:52:26;;;;;;;;;;;12.80;99.90;;;;;;5024538;28;19967;-64
2021/11/19 13:55:10;;;;;;;;;;;12.70;99.90;;;;;;5024487;28;19951;-64
2021/11/19 13:57:39;;;;;;;;;;;12.70;99.90;;;;;;5024250;28;19917;-65
2021/11/19 14:00:10;;;;;;;;;;;12.60;99.90;;;;;;5024622;28;20109;-64
2021/11/19 14:02:45;;;;;;;;;;;12.50;99.90;;;;;;5025484;28;19917;-64
2021/11/19 14:05:16;;;;;;;;;;;12.50;99.90;;;;;;5025496;28;19909;-64
2021/11/19 14:07:53;;;;;;;;;;;12.50;99.90;;;;;;5025097;28;20366;-64
2021/11/19 14:10:23;;;;;;;;;;;12.40;99.90;;;;;;5024516;28;19961;-63
2021/11/19 14:12:59;;;;;;;;;;;12.40;99.90;;;;;;5025344;28;20500;-63
2021/11/19 14:15:30;;;;;;;;;;;12.40;99.90;;;;;;5022343;28;20291;-63
2021/11/19 14:18:05;;;;;;;;;;;12.40;99.90;;;;;;5025976;28;19909;-63
2021/11/19 14:23:31;;;;;;;;;;;12.30;99.90;;;;;;5025344;28;19939;-64
2021/11/19 14:26:00;;;;;;;;;;;12.30;99.90;;;;;;5023158;28;19952;-64
2021/11/19 14:28:28;;;;;;;;;;;12.30;99.90;;;;;;5023839;28;19917;-64
2021/11/19 14:30:55;;;;;;;;;;;12.30;99.90;;;;;;5025811;28;19924;-64
2021/11/19 14:33:31;;;;;;;;;;;12.20;99.90;;;;;;5023463;28;20377;-63
2021/11/19 14:35:58;;;;;;;;;;;12.20;99.90;;;;;;5023117;28;19931;-63